Time;durP1;ratioP1;P1;durP2;ratioP2;P2;SDS_P1;SDS_P2;PMS_P1;PMS_P2;Temp;Humidity;BMP_temperature;BMP_pressure;BME280_temperature;BME280_humidity;BME280_pressure;Samples;Min_cycle;Max_cycle;Signal;HPM_P1;HPM_P2
2021/06/13 00:00:36;;;;;;;4.70;1.98;;;23.30;47.30;;;;;;5033713;28;20022;-68
2021/06/13 00:03:02;;;;;;;9.57;2.30;;;23.20;47.10;;;;;;5033710;28;20033;-67
2021/06/13 00:05:28;;;;;;;7.35;2.25;;;23.20;47.30;;;;;;5033697;28;20033;-68
2021/06/13 00:07:54;;;;;;;4.45;1.70;;;23.20;47.30;;;;;;5032288;28;20041;-67
2021/06/13 00:10:20;;;;;;;4.80;1.70;;;23.20;47.30;;;;;;5034028;28;20377;-68
2021/06/13 00:12:45;;;;;;;6.03;1.98;;;23.20;47.30;;;;;;5038674;28;20067;-67
2021/06/13 00:15:15;;;;;;;5.63;1.80;;;23.10;47.30;;;;;;5037721;28;20022;-67
2021/06/13 00:17:41;;;;;;;7.25;2.15;;;23.20;47.40;;;;;;5034107;28;20588;-67
2021/06/13 00:20:17;;;;;;;6.10;2.20;;;23.20;47.30;;;;;;5033693;28;20089;-68
2021/06/13 00:22:43;;;;;;;5.10;2.10;;;23.20;47.30;;;;;;5033855;28;20029;-67
2021/06/13 00:25:10;;;;;;;5.63;2.05;;;23.10;47.30;;;;;;5033723;28;20029;-67
2021/06/13 00:27:37;;;;;;;5.38;1.90;;;23.10;47.30;;;;;;5033336;28;20171;-67
2021/06/13 00:30:04;;;;;;;4.75;1.90;;;23.10;47.30;;;;;;5033812;28;20029;-67
2021/06/13 00:32:30;;;;;;;5.88;1.90;;;23.10;47.30;;;;;;5033490;28;20053;-68
2021/06/13 00:34:55;;;;;;;6.20;2.45;;;23.10;47.30;;;;;;5033415;28;20053;-67
2021/06/13 00:37:21;;;;;;;6.25;2.30;;;23.10;47.30;;;;;;5033308;28;20091;-67
2021/06/13 00:39:46;;;;;;;4.15;1.60;;;23.10;47.30;;;;;;5032035;28;20029;-68
2021/06/13 00:42:12;;;;;;;4.80;2.03;;;23.10;47.30;;;;;;5033387;28;20025;-67
2021/06/13 00:44:37;;;;;;;6.05;2.10;;;23.00;47.30;;;;;;5033143;28;20068;-67
2021/06/13 00:47:03;;;;;;;6.57;2.05;;;23.00;47.30;;;;;;5033578;28;20495;-68
2021/06/13 00:49:28;;;;;;;5.22;2.00;;;23.00;47.40;;;;;;5033158;28;20041;-67
2021/06/13 00:51:54;;;;;;;5.88;1.83;;;23.00;47.30;;;;;;5048623;28;20026;-68
2021/06/13 00:54:20;;;;;;;6.07;2.20;;;23.00;47.50;;;;;;5033438;28;20025;-68
2021/06/13 00:56:45;;;;;;;4.32;1.60;;;23.00;47.50;;;;;;5033371;28;20060;-68
2021/06/13 00:59:11;;;;;;;6.68;1.80;;;23.00;47.40;;;;;;5033512;28;20354;-67
2021/06/13 01:01:37;;;;;;;5.97;2.38;;;22.90;47.50;;;;;;5033713;28;20097;-68
2021/06/13 01:04:03;;;;;;;5.35;2.22;;;22.90;47.50;;;;;;5036963;28;20025;-71
2021/06/13 01:06:37;;;;;;;4.28;1.88;;;22.90;47.50;;;;;;5042794;28;20103;-71
2021/06/13 01:09:06;;;;;;;6.53;2.92;;;22.90;47.50;;;;;;5043009;28;20037;-69
2021/06/13 01:11:47;;;;;;;7.20;2.40;;;22.90;47.60;;;;;;5043701;28;20064;-69
2021/06/13 01:14:17;;;;;;;4.82;1.88;;;22.90;47.50;;;;;;5043534;28;20136;-69
2021/06/13 01:16:49;;;;;;;7.75;2.40;;;22.90;47.50;;;;;;5046561;28;20381;-68
2021/06/13 01:19:36;;;;;;;5.40;2.17;;;22.80;47.50;;;;;;5045066;28;20436;-68
2021/06/13 01:22:27;;;;;;;6.68;2.60;;;22.80;47.50;;;;;;5047224;28;20032;-67
2021/06/13 01:25:18;;;;;;;5.18;2.30;;;22.80;47.60;;;;;;5041470;28;20384;-67
2021/06/13 01:27:53;;;;;;;5.60;2.20;;;22.80;47.60;;;;;;5036754;28;20030;-67
2021/06/13 01:30:19;;;;;;;8.48;2.22;;;22.80;47.50;;;;;;5035353;28;20029;-67
2021/06/13 01:32:44;;;;;;;5.95;2.00;;;22.80;47.50;;;;;;5036475;28;20033;-67
2021/06/13 01:35:15;;;;;;;5.45;2.38;;;22.80;47.50;;;;;;5036421;28;20461;-67
2021/06/13 01:37:45;;;;;;;7.70;2.25;;;22.80;47.60;;;;;;5036326;28;20424;-67
2021/06/13 01:40:12;;;;;;;5.72;2.08;;;22.80;47.50;;;;;;5036334;28;20477;-67
2021/06/13 01:42:41;;;;;;;6.82;2.60;;;22.70;47.70;;;;;;5036228;28;20040;-67
2021/06/13 01:45:13;;;;;;;6.07;2.20;;;22.70;47.70;;;;;;5036091;28;20532;-67
2021/06/13 01:47:40;;;;;;;5.45;2.10;;;22.70;47.60;;;;;;5036078;28;20546;-67
2021/06/13 01:50:08;;;;;;;9.70;3.25;;;22.70;47.60;;;;;;5036169;28;20469;-67
2021/06/13 01:52:35;;;;;;;7.70;2.17;;;22.70;47.60;;;;;;5036042;28;20385;-68
2021/06/13 01:55:02;;;;;;;4.72;2.03;;;22.70;47.60;;;;;;5036090;28;20033;-67
2021/06/13 01:57:28;;;;;;;6.20;2.40;;;22.70;47.70;;;;;;5036191;28;20032;-67
2021/06/13 01:59:56;;;;;;;7.00;2.40;;;22.70;47.60;;;;;;5036047;28;20148;-67
2021/06/13 02:02:23;;;;;;;7.88;2.63;;;22.70;47.60;;;;;;5036065;28;20029;-67
2021/06/13 02:04:50;;;;;;;8.98;2.60;;;22.60;47.70;;;;;;5036004;28;20036;-67
2021/06/13 02:07:18;;;;;;;5.68;2.35;;;22.60;47.60;;;;;;5035880;28;20067;-68
2021/06/13 02:09:45;;;;;;;6.03;2.20;;;22.60;47.60;;;;;;5036052;28;20037;-68
2021/06/13 02:12:11;;;;;;;7.75;2.88;;;22.60;47.60;;;;;;5037925;28;20017;-67
2021/06/13 02:14:38;;;;;;;4.60;2.38;;;22.60;47.60;;;;;;5041119;28;20033;-67
2021/06/13 02:17:05;;;;;;;6.15;2.53;;;22.60;47.80;;;;;;5037667;28;20022;-68
2021/06/13 02:19:32;;;;;;;6.65;2.42;;;22.60;47.70;;;;;;5036891;28;20044;-68
2021/06/13 02:21:59;;;;;;;6.97;2.65;;;22.60;47.60;;;;;;5036289;28;20604;-68
2021/06/13 02:24:35;;;;;;;7.20;2.65;;;22.50;47.60;;;;;;5035453;28;20572;-68
2021/06/13 02:27:01;;;;;;;6.07;2.45;;;22.50;47.70;;;;;;5036290;28;20519;-68
2021/06/13 02:29:28;;;;;;;9.43;2.78;;;22.50;47.70;;;;;;5034925;28;20037;-68
2021/06/13 02:31:55;;;;;;;4.93;2.00;;;22.50;47.70;;;;;;5033603;28;20168;-68
2021/06/13 02:34:24;;;;;;;8.93;2.72;;;22.50;47.80;;;;;;5035407;28;20488;-67
2021/06/13 02:36:52;;;;;;;5.80;2.38;;;22.50;47.70;;;;;;5035373;28;20072;-68
2021/06/13 02:39:19;;;;;;;7.20;2.28;;;22.50;47.70;;;;;;5035094;28;20145;-67
2021/06/13 02:41:46;;;;;;;8.30;2.72;;;22.50;47.70;;;;;;5035386;28;20028;-67
2021/06/13 02:44:12;;;;;;;5.18;2.10;;;22.50;47.80;;;;;;5035647;28;20042;-67
2021/06/13 02:46:37;;;;;;;5.30;2.50;;;22.40;47.80;;;;;;5041825;28;20473;-68
2021/06/13 02:49:08;;;;;;;8.63;2.55;;;22.40;47.80;;;;;;5035496;28;20044;-67
2021/06/13 02:51:37;;;;;;;6.07;2.17;;;22.40;47.80;;;;;;5035184;28;20033;-67
2021/06/13 02:54:06;;;;;;;6.43;2.45;;;22.40;47.70;;;;;;5035470;28;20025;-67
2021/06/13 02:56:47;;;;;;;6.78;2.30;;;22.40;47.80;;;;;;5035265;28;20017;-67
2021/06/13 02:59:26;;;;;;;6.03;2.42;;;22.40;47.80;;;;;;5035126;28;20026;-68
2021/06/13 03:01:53;;;;;;;4.82;2.05;;;22.40;47.80;;;;;;5035052;28;20041;-67
2021/06/13 03:04:20;;;;;;;5.55;2.50;;;22.40;47.80;;;;;;5034909;28;20036;-68
2021/06/13 03:06:51;;;;;;;6.95;2.72;;;22.30;47.80;;;;;;5034908;28;20087;-67
2021/06/13 03:09:17;;;;;;;8.48;2.38;;;22.30;47.80;;;;;;5034738;28;20036;-67
2021/06/13 03:11:44;;;;;;;6.68;2.55;;;22.40;47.80;;;;;;5034868;28;20025;-67
2021/06/13 03:14:10;;;;;;;7.43;2.50;;;22.30;47.80;;;;;;5034574;28;20104;-67
2021/06/13 03:16:37;;;;;;;8.10;2.63;;;22.30;47.70;;;;;;5034827;28;20047;-67
2021/06/13 03:19:03;;;;;;;4.78;1.98;;;22.30;47.80;;;;;;5034465;28;20021;-68
2021/06/13 03:21:29;;;;;;;6.97;2.70;;;22.30;47.80;;;;;;5034480;28;20381;-68
2021/06/13 03:23:56;;;;;;;6.47;2.50;;;22.30;47.80;;;;;;5034365;28;20024;-68
2021/06/13 03:26:23;;;;;;;5.03;1.98;;;22.30;47.70;;;;;;5034334;28;20029;-68
2021/06/13 03:28:53;;;;;;;6.18;2.80;;;22.30;47.80;;;;;;5034095;28;20075;-68
2021/06/13 03:31:20;;;;;;;6.80;2.45;;;22.20;47.80;;;;;;5034344;28;20025;-68
2021/06/13 03:33:48;;;;;;;7.75;2.75;;;22.20;47.80;;;;;;5034359;28;20029;-69
2021/06/13 03:36:15;;;;;;;5.60;2.28;;;22.20;47.80;;;;;;5034059;28;20021;-67
2021/06/13 03:38:43;;;;;;;5.93;2.67;;;22.20;47.80;;;;;;5033996;28;20124;-68
2021/06/13 03:41:10;;;;;;;5.65;2.35;;;22.20;47.80;;;;;;5033669;28;20096;-67
2021/06/13 03:43:36;;;;;;;6.15;2.47;;;22.20;47.80;;;;;;5033730;28;20083;-67
2021/06/13 03:46:02;;;;;;;6.28;2.17;;;22.20;47.90;;;;;;5034006;28;20021;-67
2021/06/13 03:48:28;;;;;;;5.43;2.25;;;22.20;47.80;;;;;;5033789;28;20037;-67
2021/06/13 03:50:54;;;;;;;5.97;2.40;;;22.20;47.80;;;;;;5033869;28;20053;-68
2021/06/13 03:53:21;;;;;;;6.88;2.53;;;22.20;47.70;;;;;;5033759;28;20028;-68
2021/06/13 03:55:48;;;;;;;6.28;2.20;;;22.10;47.70;;;;;;5033639;28;20092;-67
2021/06/13 03:58:14;;;;;;;8.25;3.38;;;22.10;47.80;;;;;;5033651;28;20380;-68
2021/06/13 04:00:43;;;;;;;7.15;2.22;;;22.10;47.80;;;;;;5033587;28;20029;-68
2021/06/13 04:03:09;;;;;;;6.35;2.60;;;22.10;47.90;;;;;;5032275;28;20084;-67
2021/06/13 04:05:37;;;;;;;7.38;2.72;;;22.10;47.80;;;;;;5033580;28;20026;-68
2021/06/13 04:08:03;;;;;;;5.10;2.15;;;22.10;47.80;;;;;;5033682;28;20108;-68
2021/06/13 04:10:30;;;;;;;6.47;2.55;;;22.10;47.80;;;;;;5033349;28;20060;-67
2021/06/13 04:12:56;;;;;;;7.10;2.67;;;22.10;47.70;;;;;;5033616;28;20032;-67
2021/06/13 04:15:22;;;;;;;7.07;2.33;;;22.10;47.80;;;;;;5033658;28;20026;-67
2021/06/13 04:17:49;;;;;;;5.60;2.25;;;22.10;47.80;;;;;;5033245;28;20488;-68
2021/06/13 04:20:14;;;;;;;5.68;2.17;;;22.10;47.70;;;;;;5033387;28;20112;-68
2021/06/13 04:22:42;;;;;;;6.38;2.33;;;22.00;47.70;;;;;;5033291;28;20496;-68
2021/06/13 04:25:09;;;;;;;6.22;2.30;;;22.10;47.70;;;;;;5033150;28;20477;-68
2021/06/13 04:27:37;;;;;;;7.30;2.50;;;22.00;47.80;;;;;;5033356;28;20033;-67
2021/06/13 04:30:05;;;;;;;5.97;2.45;;;22.00;47.70;;;;;;5033155;28;20025;-67
2021/06/13 04:32:30;;;;;;;4.57;2.17;;;22.10;47.70;;;;;;5033103;28;20033;-68
2021/06/13 04:34:56;;;;;;;7.38;2.97;;;22.00;47.80;;;;;;5033077;28;20055;-68
2021/06/13 04:37:22;;;;;;;5.35;2.22;;;22.00;47.80;;;;;;5033275;28;20477;-68
2021/06/13 04:39:47;;;;;;;9.48;2.65;;;22.00;47.80;;;;;;5033040;28;20029;-67
2021/06/13 04:42:13;;;;;;;6.57;2.60;;;22.00;47.90;;;;;;5033124;28;20044;-67
2021/06/13 04:44:39;;;;;;;6.45;2.70;;;22.00;47.80;;;;;;5032830;28;20076;-67
2021/06/13 04:47:05;;;;;;;6.80;2.17;;;22.00;47.80;;;;;;5033179;28;20045;-67
2021/06/13 04:49:32;;;;;;;7.18;3.00;;;22.00;47.80;;;;;;5032812;28;20443;-68
2021/06/13 04:51:59;;;;;;;5.88;2.30;;;22.00;47.60;;;;;;5032901;28;20025;-67
2021/06/13 04:54:37;;;;;;;5.10;2.22;;;22.00;47.60;;;;;;5032477;28;20026;-67
2021/06/13 04:57:08;;;;;;;9.38;3.05;;;22.00;47.60;;;;;;5032976;28;20024;-67
2021/06/13 04:59:33;;;;;;;7.18;2.17;;;22.00;47.60;;;;;;5033009;28;20061;-67
2021/06/13 05:02:00;;;;;;;7.65;2.40;;;22.00;47.50;;;;;;5033125;28;20063;-68
2021/06/13 05:04:26;;;;;;;9.10;2.65;;;22.00;47.60;;;;;;5033013;28;20021;-67
2021/06/13 05:06:51;;;;;;;6.45;2.42;;;22.00;47.50;;;;;;5041380;28;20104;-67
2021/06/13 05:09:17;;;;;;;5.97;2.28;;;22.00;47.50;;;;;;5038744;28;20095;-67
2021/06/13 05:11:43;;;;;;;4.95;2.35;;;22.00;47.60;;;;;;5033780;28;20037;-67
2021/06/13 05:14:08;;;;;;;6.47;2.28;;;22.00;47.50;;;;;;5032548;28;20038;-68
2021/06/13 05:16:34;;;;;;;10.05;2.63;;;22.00;47.60;;;;;;5033319;28;20041;-67
2021/06/13 05:19:00;;;;;;;6.57;2.47;;;22.00;47.50;;;;;;5039357;28;20033;-66
2021/06/13 05:21:25;;;;;;;9.65;2.75;;;22.00;47.50;;;;;;5043238;28;20033;-67
2021/06/13 05:23:51;;;;;;;6.50;2.70;;;22.00;47.60;;;;;;5034245;28;20029;-67
2021/06/13 05:26:16;;;;;;;7.53;2.50;;;22.00;47.50;;;;;;5034066;28;20057;-67
2021/06/13 05:28:42;;;;;;;7.10;2.25;;;22.00;47.50;;;;;;5033466;28;20045;-67
2021/06/13 05:31:08;;;;;;;7.88;2.70;;;22.00;47.40;;;;;;5033026;28;20417;-67
2021/06/13 05:33:33;;;;;;;8.55;2.60;;;22.00;47.40;;;;;;5031775;28;20061;-68
2021/06/13 05:36:01;;;;;;;7.20;2.58;;;22.00;47.40;;;;;;5033019;28;20030;-67
2021/06/13 05:38:28;;;;;;;7.13;2.92;;;22.00;47.40;;;;;;5032996;28;20060;-67
2021/06/13 05:40:54;;;;;;;7.63;2.42;;;22.00;47.30;;;;;;5032889;28;20096;-67
2021/06/13 05:43:19;;;;;;;6.00;2.22;;;22.00;47.30;;;;;;5032730;28;20032;-68
2021/06/13 05:45:45;;;;;;;8.45;2.88;;;22.00;47.20;;;;;;5032752;28;20030;-67
2021/06/13 05:48:11;;;;;;;8.82;2.65;;;22.00;47.20;;;;;;5032690;28;20033;-67
2021/06/13 05:50:37;;;;;;;5.93;2.28;;;22.00;47.20;;;;;;5032671;28;20025;-68
2021/06/13 05:53:05;;;;;;;8.15;2.35;;;22.00;47.10;;;;;;5032490;28;20096;-67
2021/06/13 05:55:31;;;;;;;7.40;2.45;;;22.10;47.00;;;;;;5032546;28;20018;-67
2021/06/13 05:57:57;;;;;;;7.95;2.83;;;22.10;47.00;;;;;;5032937;28;20033;-67
2021/06/13 06:00:25;;;;;;;6.93;2.70;;;22.10;46.80;;;;;;5032875;28;20108;-67
2021/06/13 06:02:51;;;;;;;8.98;2.45;;;22.10;46.80;;;;;;5032755;28;20109;-67
2021/06/13 06:05:18;;;;;;;10.80;2.92;;;22.10;46.80;;;;;;5034469;28;20048;-67
2021/06/13 06:07:44;;;;;;;7.60;2.78;;;22.20;46.80;;;;;;5040435;28;20036;-67
2021/06/13 06:10:11;;;;;;;7.53;2.30;;;22.10;46.70;;;;;;5038727;28;20025;-67
2021/06/13 06:12:37;;;;;;;8.18;2.53;;;22.20;46.60;;;;;;5036508;28;20018;-68
2021/06/13 06:15:06;;;;;;;8.68;2.75;;;22.10;46.60;;;;;;5036209;28;20513;-67
2021/06/13 06:17:32;;;;;;;7.30;2.80;;;22.20;46.60;;;;;;5036338;28;20484;-68
2021/06/13 06:19:57;;;;;;;6.47;2.42;;;22.10;46.60;;;;;;5036075;28;20033;-67
2021/06/13 06:22:23;;;;;;;7.97;2.85;;;22.20;46.50;;;;;;5035920;28;20054;-68
2021/06/13 06:24:48;;;;;;;9.00;2.60;;;22.20;46.40;;;;;;5035755;28;20083;-68
2021/06/13 06:27:14;;;;;;;5.93;2.38;;;22.20;46.40;;;;;;5035748;28;20418;-67
2021/06/13 06:29:39;;;;;;;5.88;2.50;;;22.20;46.10;;;;;;5035512;28;20037;-67
2021/06/13 06:32:05;;;;;;;5.38;2.30;;;22.20;46.00;;;;;;5035579;28;20021;-68
2021/06/13 06:34:31;;;;;;;6.82;2.58;;;22.20;46.00;;;;;;5035482;28;20057;-67
2021/06/13 06:36:57;;;;;;;6.07;3.15;;;22.20;46.00;;;;;;5035480;28;20029;-67
2021/06/13 06:39:22;;;;;;;9.52;2.70;;;22.30;46.00;;;;;;5035364;28;20097;-68
2021/06/13 06:41:48;;;;;;;5.97;2.58;;;22.30;45.80;;;;;;5035180;28;20054;-67
2021/06/13 06:44:14;;;;;;;7.95;2.70;;;22.30;45.70;;;;;;5035081;28;20416;-67
2021/06/13 06:46:40;;;;;;;7.80;3.05;;;22.30;45.80;;;;;;5035099;28;20029;-67
2021/06/13 06:49:06;;;;;;;7.15;2.67;;;22.40;45.70;;;;;;5035313;28;20141;-67
2021/06/13 06:51:33;;;;;;;7.45;2.80;;;22.30;45.70;;;;;;5035112;28;20057;-67
2021/06/13 06:53:58;;;;;;;6.10;2.13;;;22.30;45.60;;;;;;5035263;28;20029;-67
2021/06/13 06:56:25;;;;;;;9.70;2.97;;;22.40;45.60;;;;;;5036798;28;20028;-67
2021/06/13 06:58:51;;;;;;;5.70;2.17;;;22.40;45.50;;;;;;5042069;28;20462;-68
2021/06/13 07:01:16;;;;;;;7.18;2.58;;;22.40;45.50;;;;;;5035238;28;20029;-67
2021/06/13 07:03:42;;;;;;;5.82;2.50;;;22.40;45.50;;;;;;5035531;28;20041;-67
2021/06/13 07:06:08;;;;;;;7.50;3.03;;;22.50;45.40;;;;;;5035630;28;20388;-67
2021/06/13 07:08:33;;;;;;;5.60;2.70;;;22.50;45.40;;;;;;5035172;28;20038;-67
2021/06/13 07:10:59;;;;;;;7.65;2.50;;;22.40;45.40;;;;;;5034839;28;20021;-67
2021/06/13 07:13:25;;;;;;;7.25;2.40;;;22.40;45.10;;;;;;5034545;28;20041;-67
2021/06/13 07:15:50;;;;;;;6.97;2.70;;;22.40;45.30;;;;;;5034671;28;20032;-67
2021/06/13 07:18:16;;;;;;;6.57;2.63;;;22.50;45.40;;;;;;5034436;28;20022;-68
2021/06/13 07:20:42;;;;;;;6.85;2.60;;;22.50;45.20;;;;;;5034620;28;20485;-67
2021/06/13 07:23:08;;;;;;;5.45;2.30;;;22.50;45.00;;;;;;5034460;28;20092;-67
2021/06/13 07:25:35;;;;;;;5.30;2.03;;;22.50;45.00;;;;;;5034470;28;20465;-68
2021/06/13 07:28:01;;;;;;;6.82;2.70;;;22.50;44.50;;;;;;5034088;28;20029;-67
2021/06/13 07:30:26;;;;;;;5.43;2.45;;;22.50;44.80;;;;;;5034188;28;20362;-67
2021/06/13 07:32:52;;;;;;;6.30;2.40;;;22.50;44.70;;;;;;5034060;28;20021;-68
2021/06/13 07:35:19;;;;;;;7.38;2.40;;;22.50;44.80;;;;;;5034249;28;20037;-67
2021/06/13 07:37:46;;;;;;;7.22;2.78;;;22.50;44.60;;;;;;5033984;28;20028;-67
2021/06/13 07:40:14;;;;;;;8.57;2.95;;;22.50;44.50;;;;;;5032719;28;20477;-67
2021/06/13 07:42:41;;;;;;;8.40;2.80;;;22.50;44.50;;;;;;5032731;28;20028;-68
2021/06/13 07:45:10;;;;;;;7.28;2.90;;;22.50;44.30;;;;;;5033698;28;20416;-67
2021/06/13 07:47:36;;;;;;;5.65;2.50;;;22.50;44.50;;;;;;5033744;28;20055;-67
2021/06/13 07:50:04;;;;;;;5.28;2.42;;;22.60;44.30;;;;;;5033785;28;20037;-67
2021/06/13 07:52:31;;;;;;;6.65;2.63;;;22.50;44.60;;;;;;5032616;28;20056;-67
2021/06/13 07:54:57;;;;;;;6.45;2.80;;;22.50;44.70;;;;;;5033688;28;20033;-67
2021/06/13 07:57:22;;;;;;;5.15;2.42;;;22.60;44.20;;;;;;5033606;28;20040;-67
2021/06/13 07:59:48;;;;;;;5.40;2.58;;;22.60;44.10;;;;;;5033641;28;20376;-67
2021/06/13 08:02:13;;;;;;;8.77;2.33;;;22.60;44.00;;;;;;5033794;28;20029;-67
2021/06/13 08:04:42;;;;;;;6.97;2.42;;;22.60;43.80;;;;;;5033713;28;20429;-68
2021/06/13 08:07:08;;;;;;;6.43;2.63;;;22.60;43.80;;;;;;5033495;28;20068;-67
2021/06/13 08:09:34;;;;;;;7.95;2.80;;;22.60;43.70;;;;;;5033362;28;20041;-68
2021/06/13 08:11:59;;;;;;;7.50;2.97;;;22.60;43.90;;;;;;5033342;28;20029;-69
2021/06/13 08:14:25;;;;;;;6.65;2.50;;;22.60;43.70;;;;;;5033372;28;20029;-68
2021/06/13 08:16:51;;;;;;;8.20;3.30;;;22.60;44.00;;;;;;5033585;28;20037;-68
2021/06/13 08:19:16;;;;;;;6.72;2.55;;;22.60;43.70;;;;;;5033173;28;20025;-67
2021/06/13 08:21:42;;;;;;;5.97;2.38;;;22.60;43.50;;;;;;5033335;28;20029;-67
2021/06/13 08:24:09;;;;;;;6.72;2.72;;;22.60;43.60;;;;;;5033502;28;20152;-67
2021/06/13 08:26:35;;;;;;;8.65;2.58;;;22.60;43.80;;;;;;5040007;28;20037;-67
2021/06/13 08:29:02;;;;;;;5.80;2.25;;;22.60;43.50;;;;;;5042199;28;20029;-67
2021/06/13 08:31:28;;;;;;;5.80;2.17;;;22.60;43.10;;;;;;5036425;28;20265;-67
2021/06/13 08:33:55;;;;;;;7.03;2.78;;;22.60;43.40;;;;;;5034114;28;20548;-67
2021/06/13 08:36:21;;;;;;;7.43;3.08;;;22.60;43.10;;;;;;5033974;28;20025;-67
2021/06/13 08:38:48;;;;;;;6.93;2.88;;;22.50;43.20;;;;;;5033330;28;20129;-67
2021/06/13 08:41:15;;;;;;;6.63;2.50;;;22.60;43.40;;;;;;5033698;28;20024;-67
2021/06/13 08:43:42;;;;;;;6.03;3.03;;;22.60;43.40;;;;;;5033467;28;20120;-67
2021/06/13 08:46:08;;;;;;;7.28;3.15;;;22.60;43.50;;;;;;5035031;28;20029;-68
2021/06/13 08:48:34;;;;;;;5.72;2.70;;;22.60;43.60;;;;;;5039168;28;20028;-69
2021/06/13 08:51:01;;;;;;;7.25;2.63;;;22.60;43.50;;;;;;5044235;28;20491;-68
2021/06/13 08:53:27;;;;;;;5.90;2.47;;;22.60;43.30;;;;;;5044185;28;20044;-68
2021/06/13 08:55:53;;;;;;;7.07;2.60;;;22.60;43.40;;;;;;5042174;28;20026;-68
2021/06/13 08:58:19;;;;;;;6.65;2.20;;;22.60;43.40;;;;;;5043415;28;20120;-69
2021/06/13 09:00:46;;;;;;;7.47;2.55;;;22.60;43.50;;;;;;5045811;28;20089;-67
2021/06/13 09:03:13;;;;;;;7.93;2.58;;;22.60;43.40;;;;;;5043596;28;20106;-68
2021/06/13 09:05:39;;;;;;;9.05;2.63;;;22.60;43.50;;;;;;5043842;28;20040;-68
2021/06/13 09:08:11;;;;;;;6.88;2.30;;;22.60;43.40;;;;;;5041503;28;20068;-68
2021/06/13 09:10:42;;;;;;;6.07;2.67;;;22.70;43.50;;;;;;5033438;28;20109;-67
2021/06/13 09:13:21;;;;;;;6.72;2.47;;;22.60;43.60;;;;;;5033217;28;20029;-67
2021/06/13 09:15:54;;;;;;;8.40;2.90;;;22.60;43.60;;;;;;5037440;28;20362;-67
2021/06/13 09:18:41;;;;;;;7.10;2.75;;;22.60;43.80;;;;;;5033048;28;20099;-67
2021/06/13 09:21:36;;;;;;;6.82;2.80;;;22.60;43.60;;;;;;5032843;28;20386;-67
2021/06/13 09:24:35;;;;;;;8.60;2.90;;;22.60;43.60;;;;;;5035279;28;20021;-67
2021/06/13 09:27:08;;;;;;;7.68;2.63;;;22.60;43.30;;;;;;5032264;28;20072;-67
2021/06/13 09:29:52;;;;;;;6.95;2.70;;;22.60;43.40;;;;;;5032487;28;20034;-67
2021/06/13 09:32:18;;;;;;;7.57;2.67;;;22.60;43.40;;;;;;5032399;28;20036;-67
2021/06/13 09:34:44;;;;;;;6.43;2.55;;;22.60;43.10;;;;;;5031372;28;20029;-67
2021/06/13 09:37:10;;;;;;;10.45;3.03;;;22.60;43.00;;;;;;5032899;28;20028;-67
2021/06/13 09:39:35;;;;;;;5.60;2.72;;;22.60;43.00;;;;;;5033435;28;20026;-67
2021/06/13 09:42:08;;;;;;;6.50;2.50;;;22.60;42.90;;;;;;5036400;28;20147;-67
2021/06/13 09:44:36;;;;;;;7.72;2.80;;;22.60;42.90;;;;;;5036162;28;20123;-67
2021/06/13 09:47:03;;;;;;;5.65;2.72;;;22.60;43.00;;;;;;5036045;28;20025;-67
2021/06/13 09:49:45;;;;;;;7.63;2.55;;;22.60;43.10;;;;;;5036031;28;20076;-68
2021/06/13 09:52:11;;;;;;;7.40;2.72;;;22.70;43.10;;;;;;5036016;28;20021;-67
2021/06/13 09:54:37;;;;;;;8.65;2.90;;;22.60;43.00;;;;;;5036150;28;20034;-68
2021/06/13 09:57:03;;;;;;;6.35;2.72;;;22.60;43.30;;;;;;5036098;28;20116;-68
2021/06/13 09:59:33;;;;;;;8.00;2.72;;;22.70;43.60;;;;;;5035754;28;20547;-68
2021/06/13 10:02:00;;;;;;;6.15;2.75;;;22.70;43.50;;;;;;5035779;28;20025;-68
2021/06/13 10:04:32;;;;;;;6.50;2.75;;;22.70;43.50;;;;;;5035951;28;20384;-67
2021/06/13 10:07:21;;;;;;;6.25;2.70;;;22.70;43.50;;;;;;5035868;28;20053;-67
2021/06/13 10:09:52;;;;;;;9.25;2.60;;;22.70;43.60;;;;;;5035633;28;20047;-68
2021/06/13 10:12:20;;;;;;;6.65;2.53;;;22.70;43.70;;;;;;5035852;28;20026;-68
2021/06/13 10:14:48;;;;;;;5.53;2.40;;;22.70;43.70;;;;;;5035858;28;20109;-68
2021/06/13 10:17:14;;;;;;;7.43;2.67;;;22.70;43.70;;;;;;5050652;28;20024;-68
2021/06/13 10:19:42;;;;;;;7.13;2.80;;;22.70;43.80;;;;;;5035143;28;20029;-68
2021/06/13 10:22:10;;;;;;;6.30;2.58;;;22.80;43.80;;;;;;5035182;28;20037;-68
2021/06/13 10:24:39;;;;;;;6.38;2.67;;;22.80;43.80;;;;;;5035287;28;20033;-68
2021/06/13 10:27:16;;;;;;;4.97;2.03;;;22.80;43.80;;;;;;5035168;28;20028;-68
2021/06/13 10:29:44;;;;;;;6.78;2.83;;;22.80;43.70;;;;;;5034836;28;20436;-67
2021/06/13 10:32:11;;;;;;;5.53;2.38;;;22.80;43.70;;;;;;5034985;28;20021;-68
2021/06/13 10:34:37;;;;;;;5.80;2.70;;;22.80;43.80;;;;;;5034854;28;20564;-68
2021/06/13 10:37:09;;;;;;;7.07;2.53;;;22.80;43.70;;;;;;5033597;28;20061;-68
2021/06/13 10:39:35;;;;;;;6.57;2.60;;;22.80;43.60;;;;;;5034815;28;20022;-67
2021/06/13 10:42:03;;;;;;;7.03;2.58;;;22.80;43.70;;;;;;5033315;28;20116;-67
2021/06/13 10:44:31;;;;;;;6.18;2.72;;;22.80;43.60;;;;;;5034543;28;20041;-67
2021/06/13 10:47:07;;;;;;;6.47;3.03;;;22.90;43.70;;;;;;5034958;28;20045;-67
2021/06/13 10:49:35;;;;;;;7.32;2.50;;;22.90;43.70;;;;;;5034582;28;20037;-67
2021/06/13 10:52:12;;;;;;;6.88;2.72;;;22.90;43.70;;;;;;5033542;28;20026;-67
2021/06/13 10:54:41;;;;;;;8.05;2.90;;;22.90;43.80;;;;;;5034414;28;20032;-67
2021/06/13 10:57:09;;;;;;;6.45;2.83;;;22.90;43.70;;;;;;5034723;28;20013;-67
2021/06/13 10:59:37;;;;;;;6.40;2.65;;;22.90;43.70;;;;;;5034643;28;20021;-67
2021/06/13 11:02:14;;;;;;;5.93;2.50;;;22.90;43.70;;;;;;5034500;28;20381;-67
2021/06/13 11:04:42;;;;;;;6.45;2.72;;;22.90;43.70;;;;;;5034241;28;20035;-67
2021/06/13 11:07:08;;;;;;;7.10;2.50;;;23.00;43.60;;;;;;5034307;28;20057;-67
2021/06/13 11:09:53;;;;;;;6.05;2.53;;;22.90;43.70;;;;;;5034371;28;20414;-67
2021/06/13 11:12:39;;;;;;;5.70;2.35;;;23.00;43.70;;;;;;5034174;28;20033;-67
2021/06/13 11:15:06;;;;;;;5.35;2.50;;;23.00;43.50;;;;;;5034241;28;20044;-67
2021/06/13 11:17:57;;;;;;;5.15;2.47;;;23.00;43.50;;;;;;5033963;28;20167;-67
2021/06/13 11:20:46;;;;;;;5.00;2.20;;;23.00;43.70;;;;;;5034277;28;20108;-66
2021/06/13 11:23:21;;;;;;;6.93;2.72;;;23.00;43.60;;;;;;5034217;28;20061;-67
2021/06/13 11:25:48;;;;;;;6.93;2.47;;;23.10;43.60;;;;;;5034328;28;20095;-66
2021/06/13 11:28:27;;;;;;;6.05;2.42;;;23.10;43.50;;;;;;5034427;28;20034;-67
2021/06/13 11:31:09;;;;;;;5.65;2.22;;;23.10;43.50;;;;;;5038666;28;20029;-67
2021/06/13 11:33:43;;;;;;;5.07;2.00;;;23.20;43.50;;;;;;5041366;28;20021;-67
2021/06/13 11:36:15;;;;;;;6.15;2.60;;;23.20;43.40;;;;;;5036090;28;20052;-67
2021/06/13 11:38:45;;;;;;;9.15;2.88;;;23.20;43.40;;;;;;5035042;28;20025;-68
2021/06/13 11:41:27;;;;;;;7.13;2.53;;;23.20;43.30;;;;;;5034081;28;20029;-67
2021/06/13 11:43:53;;;;;;;5.70;2.15;;;23.20;43.40;;;;;;5034006;28;20037;-67
2021/06/13 11:46:31;;;;;;;5.65;2.35;;;23.30;43.30;;;;;;5034177;28;20155;-67
2021/06/13 11:48:56;;;;;;;6.03;1.98;;;23.30;43.30;;;;;;5034145;28;20104;-66
2021/06/13 11:51:23;;;;;;;7.22;2.20;;;23.40;43.20;;;;;;5032753;28;20063;-66
2021/06/13 11:53:52;;;;;;;5.80;2.40;;;23.40;43.20;;;;;;5033936;28;20045;-67
2021/06/13 11:56:36;;;;;;;5.03;2.40;;;23.50;43.20;;;;;;5033471;28;20014;-67
2021/06/13 11:59:05;;;;;;;3.88;1.60;;;23.50;43.20;;;;;;5033502;28;20424;-67
2021/06/13 12:01:37;;;;;;;5.18;1.90;;;23.50;43.10;;;;;;5033734;28;20025;-67
2021/06/13 12:04:05;;;;;;;6.40;1.95;;;23.50;43.10;;;;;;5033381;28;20076;-67
2021/06/13 12:06:34;;;;;;;5.97;2.10;;;23.60;43.00;;;;;;5033673;28;20030;-66
2021/06/13 12:09:03;;;;;;;5.80;2.13;;;23.60;43.00;;;;;;5033291;28;20115;-67
2021/06/13 12:11:37;;;;;;;4.57;2.00;;;23.60;43.00;;;;;;5033360;28;20091;-66
2021/06/13 12:14:23;;;;;;;5.25;2.22;;;23.70;42.90;;;;;;5033623;28;20033;-67
2021/06/13 12:16:50;;;;;;;6.25;2.30;;;23.70;42.90;;;;;;5033107;28;20116;-67
2021/06/13 12:19:30;;;;;;;5.75;2.20;;;23.70;42.80;;;;;;5033448;28;20083;-67
2021/06/13 12:27:27;;;;;;;6.03;2.15;;;23.90;42.80;;;;;;5033368;28;20249;-67
2021/06/13 12:30:18;;;;;;;6.57;2.22;;;23.90;42.70;;;;;;5033114;28;20116;-68
2021/06/13 12:32:52;;;;;;;5.97;2.25;;;23.90;42.70;;;;;;5033206;28;20458;-67
2021/06/13 12:35:18;;;;;;;5.43;2.30;;;24.00;42.60;;;;;;5033075;28;20025;-68
2021/06/13 12:38:02;;;;;;;6.57;2.25;;;24.00;42.50;;;;;;5032996;28;20018;-67
2021/06/13 12:40:28;;;;;;;5.72;2.10;;;24.10;42.40;;;;;;5033205;28;20025;-68
2021/06/13 12:42:53;;;;;;;7.43;2.88;;;24.20;42.30;;;;;;5033074;28;20032;-67
2021/06/13 12:45:20;;;;;;;5.88;2.20;;;24.20;42.30;;;;;;5032758;28;20152;-67
2021/06/13 12:47:48;;;;;;;4.78;2.08;;;24.20;42.20;;;;;;5032990;28;20021;-68
2021/06/13 12:50:23;;;;;;;5.40;2.13;;;24.30;42.10;;;;;;5033054;28;20037;-67
2021/06/13 12:52:51;;;;;;;6.50;2.25;;;24.40;42.00;;;;;;5032795;28;20024;-68
2021/06/13 12:55:17;;;;;;;5.57;2.10;;;24.40;42.00;;;;;;5032763;28;20096;-67
2021/06/13 12:57:47;;;;;;;8.13;2.35;;;24.50;41.90;;;;;;5032780;28;20022;-67